This is the latest recevied weather packets stored in our database for station/object KG4K-13. If no packets are shown the sender has not sent any weather packets the latest 10 day(s).
| Time | Temp. | Humidity | Pressure | Rain* | Wind** | Luminosity | Snow |
|---|---|---|---|---|---|---|---|
| 1777656316 | 16.67° C | 50% | 1014.6 hPa | 0 mm | - | 839 W/m² | - |
| 1777655717 | 16.67° C | 52% | 1014.6 hPa | 0 mm | - | 838 W/m² | - |
| 1777653957 | 17.78° C | 44% | 1014.7 hPa | 0 mm | - | 700 W/m² | - |
| 1777653317 | 17.78° C | 43% | 1014.7 hPa | 0 mm | - | 848 W/m² | - |
| 1777648518 | 16.11° C | 50% | 1015.9 hPa | 0 mm | - | 842 W/m² | - |
| 1777643756 | 12.78° C | 54% | 1016 hPa | 0 mm | - | 628 W/m² | - |
| 1777640127 | 11.11° C | 65% | 1016.2 hPa | 0 mm | - | 429 W/m² | - |
| 1777639528 | 10.56° C | 68% | 1016.2 hPa | 0 mm | - | 54 W/m² | - |
| 1777638327 | 10° C | 71% | 1016.2 hPa | 0 mm | - | 48 W/m² | - |
| 1777637728 | 10° C | 72% | 1016.1 hPa | 0 mm | - | 46 W/m² | - |
| 1777635928 | 8.89° C | 76% | 1016.1 hPa | 0 mm | - | 39 W/m² | - |
| 1777634728 | 7.78° C | 80% | 1015.9 hPa | 0 mm | - | 34 W/m² | - |
| 1777632928 | 6.67° C | 83% | 1015.7 hPa | 0 mm | - | 31 W/m² | - |
| 1777631129 | 6.67° C | 85% | 1015.4 hPa | 0 mm | - | 10 W/m² | - |
| 1777624516 | 8.33° C | 76% | 1015.4 hPa | 0 mm | - | 0 W/m² | - |
| 1777621517 | 8.89° C | 72% | 1014.9 hPa | 0 mm | - | 0 W/m² | - |
| 1777620918 | 8.89° C | 71% | 1014.8 hPa | 0 mm | - | 0 W/m² | - |
| 1777620317 | 9.44° C | 70% | 1014.8 hPa | 0 mm | - | 0 W/m² | - |
| 1777617921 | 9.44° C | 68% | 1014.5 hPa | 0 mm | - | 0 W/m² | - |
| 1777617321 | 10° C | 68% | 1014.4 hPa | 0 mm | - | 0 W/m² | - |
| 1777612519 | 10° C | 69% | 1014.4 hPa | 0 mm | - | 0 W/m² | - |
| 1777607718 | 11.11° C | 64% | 1014.1 hPa | 0 mm | - | 0 W/m² | - |
| 1777607138 | 11.11° C | 64% | 1014.2 hPa | 0 mm | - | 0 W/m² | - |
| 1777606518 | 11.11° C | 64% | 1014.1 hPa | 0 mm | - | 0 W/m² | - |
| 1777604716 | 11.67° C | 62% | 1013.8 hPa | 0 mm | - | 0 W/m² | - |
* Rain latest hour (hover to see other rain measurements)
** Current wind speed in m/s (hover to see current wind gust speed)